sensor_id;sensor_type;location;lat;lon;timestamp;pressure;altitude;pressure_sealevel;temperature;humidity
55550;BME280;41397;49.972;18.944;2022-08-24T00:04:50;102122.09;;;22.00;90.23
55550;BME280;41397;49.972;18.944;2022-08-24T00:10:06;102121.87;;;21.93;89.86
55550;BME280;41397;49.972;18.944;2022-08-24T00:15:20;102111.78;;;21.92;90.28
55550;BME280;41397;49.972;18.944;2022-08-24T00:20:34;102111.29;;;21.97;90.05
55550;BME280;41397;49.972;18.944;2022-08-24T00:20:53;102110.58;;;21.94;90.07
55550;BME280;41397;49.972;18.944;2022-08-24T00:25:48;102120.33;;;21.99;89.79
55550;BME280;41397;49.972;18.944;2022-08-24T00:31:03;102121.34;;;21.89;89.19
55550;BME280;41397;49.972;18.944;2022-08-24T00:36:17;102120.66;;;21.95;90.70
55550;BME280;41397;49.972;18.944;2022-08-24T00:41:35;102116.52;;;22.00;90.83
55550;BME280;41397;49.972;18.944;2022-08-24T00:47:04;102114.44;;;22.02;89.94
55550;BME280;41397;49.972;18.944;2022-08-24T00:51:17;102112.67;;;22.01;90.27
55550;BME280;41397;49.972;18.944;2022-08-24T00:52:24;102118.24;;;22.01;90.65
55550;BME280;41397;49.972;18.944;2022-08-24T00:57:41;102122.79;;;22.02;89.71
55550;BME280;41397;49.972;18.944;2022-08-24T01:02:58;102122.45;;;22.05;90.05
55550;BME280;41397;49.972;18.944;2022-08-24T01:08:17;102131.18;;;22.10;89.91
55550;BME280;41397;49.972;18.944;2022-08-24T01:13:32;102135.87;;;22.09;89.38
55550;BME280;41397;49.972;18.944;2022-08-24T01:18:47;102139.70;;;22.08;89.32
55550;BME280;41397;49.972;18.944;2022-08-24T01:21:42;102136.39;;;22.05;89.53
55550;BME280;41397;49.972;18.944;2022-08-24T01:24:09;102136.54;;;22.03;89.47
55550;BME280;41397;49.972;18.944;2022-08-24T01:29:26;102147.20;;;22.08;90.15
55550;BME280;41397;49.972;18.944;2022-08-24T01:34:43;102141.27;;;22.11;89.28
55550;BME280;41397;49.972;18.944;2022-08-24T01:39:58;102136.04;;;22.08;89.25
55550;BME280;41397;49.972;18.944;2022-08-24T01:45:13;102123.69;;;22.10;89.62
55550;BME280;41397;49.972;18.944;2022-08-24T01:50:27;102131.18;;;22.10;89.23
55550;BME280;41397;49.972;18.944;2022-08-24T01:51:58;102124.04;;;22.07;89.55
55550;BME280;41397;49.972;18.944;2022-08-24T01:55:41;102117.40;;;22.08;89.50
55550;BME280;41397;49.972;18.944;2022-08-24T02:00:56;102133.76;;;22.03;89.29
55550;BME280;41397;49.972;18.944;2022-08-24T02:06:10;102131.81;;;21.95;89.81
55550;BME280;41397;49.972;18.944;2022-08-24T02:11:24;102138.24;;;21.96;90.02
55550;BME280;41397;49.972;18.944;2022-08-24T02:16:39;102142.95;;;21.95;90.09
55550;BME280;41397;49.972;18.944;2022-08-24T02:21:52;102146.08;;;21.92;90.20
55550;BME280;41397;49.972;18.944;2022-08-24T02:22:12;102143.48;;;21.91;90.39
55550;BME280;41397;49.972;18.944;2022-08-24T02:27:08;102156.36;;;21.92;90.49
55550;BME280;41397;49.972;18.944;2022-08-24T02:32:26;102160.34;;;21.89;90.25
55550;BME280;41397;49.972;18.944;2022-08-24T02:37:43;102166.78;;;21.90;90.43
55550;BME280;41397;49.972;18.944;2022-08-24T02:43:00;102167.62;;;21.82;90.60
55550;BME280;41397;49.972;18.944;2022-08-24T02:48:17;102163.93;;;21.73;90.98
55550;BME280;41397;49.972;18.944;2022-08-24T02:52:26;102155.41;;;21.75;91.28
55550;BME280;41397;49.972;18.944;2022-08-24T02:53:31;102158.20;;;21.75;91.22
55550;BME280;41397;49.972;18.944;2022-08-24T02:58:45;102163.05;;;21.73;91.36
55550;BME280;41397;49.972;18.944;2022-08-24T03:03:59;102167.04;;;21.70;91.82
55550;BME280;41397;49.972;18.944;2022-08-24T03:09:13;102175.57;;;21.69;91.70
55550;BME280;41397;49.972;18.944;2022-08-24T03:14:26;102172.80;;;21.69;91.96
55550;BME280;41397;49.972;18.944;2022-08-24T03:19:40;102174.53;;;21.70;91.84
55550;BME280;41397;49.972;18.944;2022-08-24T03:22:39;102186.00;;;21.67;91.86
55550;BME280;41397;49.972;18.944;2022-08-24T03:24:55;102181.45;;;21.66;92.31
55550;BME280;41397;49.972;18.944;2022-08-24T03:30:12;102164.59;;;21.67;92.58
55550;BME280;41397;49.972;18.944;2022-08-24T03:35:26;102178.03;;;21.72;92.54
55550;BME280;41397;49.972;18.944;2022-08-24T03:40:41;102170.69;;;21.71;92.05
55550;BME280;41397;49.972;18.944;2022-08-24T03:45:54;102168.48;;;21.75;92.13
55550;BME280;41397;49.972;18.944;2022-08-24T03:51:14;102175.44;;;21.79;92.17
55550;BME280;41397;49.972;18.944;2022-08-24T03:52:53;102179.95;;;21.80;92.09
55550;BME280;41397;49.972;18.944;2022-08-24T03:56:28;102176.16;;;21.81;91.92
55550;BME280;41397;49.972;18.944;2022-08-24T04:01:42;102167.27;;;21.77;92.02
55550;BME280;41397;49.972;18.944;2022-08-24T04:06:55;102167.95;;;21.79;92.44
55550;BME280;41397;49.972;18.944;2022-08-24T04:12:12;102169.72;;;21.80;91.87
55550;BME280;41397;49.972;18.944;2022-08-24T04:17:25;102170.58;;;21.81;91.92
55550;BME280;41397;49.972;18.944;2022-08-24T04:22:39;102172.46;;;21.72;91.98
55550;BME280;41397;49.972;18.944;2022-08-24T04:23:08;102175.40;;;21.70;91.90
55550;BME280;41397;49.972;18.944;2022-08-24T04:27:53;102172.95;;;21.67;92.10
55550;BME280;41397;49.972;18.944;2022-08-24T04:33:08;102184.76;;;21.61;92.47
55550;BME280;41397;49.972;18.944;2022-08-24T04:38:23;102187.31;;;21.55;92.87
55550;BME280;41397;49.972;18.944;2022-08-24T04:43:38;102181.00;;;21.44;94.01
55550;BME280;41397;49.972;18.944;2022-08-24T04:48:52;102176.84;;;21.48;93.82
55550;BME280;41397;49.972;18.944;2022-08-24T04:53:22;102168.48;;;21.48;94.30
55550;BME280;41397;49.972;18.944;2022-08-24T04:54:06;102170.22;;;21.49;94.23
55550;BME280;41397;49.972;18.944;2022-08-24T04:59:20;102175.96;;;21.48;94.07
55550;BME280;41397;49.972;18.944;2022-08-24T05:04:34;102180.88;;;21.54;93.89
55550;BME280;41397;49.972;18.944;2022-08-24T05:09:49;102177.75;;;21.57;94.09
55550;BME280;41397;49.972;18.944;2022-08-24T05:15:04;102183.89;;;21.61;93.87
55550;BME280;41397;49.972;18.944;2022-08-24T05:20:18;102173.43;;;21.63;94.12
55550;BME280;41397;49.972;18.944;2022-08-24T05:23:38;102182.66;;;21.63;94.09
55550;BME280;41397;49.972;18.944;2022-08-24T05:25:32;102189.13;;;21.64;93.97
55550;BME280;41397;49.972;18.944;2022-08-24T05:30:46;102177.47;;;21.68;94.06
55550;BME280;41397;49.972;18.944;2022-08-24T05:35:59;102183.76;;;21.70;93.93
55550;BME280;41397;49.972;18.944;2022-08-24T05:41:14;102183.94;;;21.69;94.41
55550;BME280;41397;49.972;18.944;2022-08-24T05:46:30;102174.58;;;21.78;94.02
55550;BME280;41397;49.972;18.944;2022-08-24T05:51:47;102164.83;;;21.82;93.92
55550;BME280;41397;49.972;18.944;2022-08-24T05:53:55;102173.03;;;21.84;94.17
55550;BME280;41397;49.972;18.944;2022-08-24T05:57:01;102166.64;;;21.91;94.02
55550;BME280;41397;49.972;18.944;2022-08-24T06:02:18;102159.33;;;21.99;93.75
55550;BME280;41397;49.972;18.944;2022-08-24T06:07:32;102175.40;;;22.05;93.17
55550;BME280;41397;49.972;18.944;2022-08-24T06:12:46;102170.20;;;22.10;92.63
55550;BME280;41397;49.972;18.944;2022-08-24T06:18:01;102185.34;;;22.07;92.74
55550;BME280;41397;49.972;18.944;2022-08-24T06:23:15;102199.30;;;22.15;92.39
55550;BME280;41397;49.972;18.944;2022-08-24T06:24:09;102192.83;;;22.15;92.49
55550;BME280;41397;49.972;18.944;2022-08-24T06:28:28;102197.73;;;22.13;92.30
55550;BME280;41397;49.972;18.944;2022-08-24T06:33:45;102215.31;;;22.13;92.25
55550;BME280;41397;49.972;18.944;2022-08-24T06:39:00;102216.03;;;22.15;92.44
55550;BME280;41397;49.972;18.944;2022-08-24T06:44:14;102215.91;;;22.25;92.48
55550;BME280;41397;49.972;18.944;2022-08-24T06:49:28;102224.63;;;22.30;92.06
55550;BME280;41397;49.972;18.944;2022-08-24T06:54:22;102214.73;;;22.36;92.22
55550;BME280;41397;49.972;18.944;2022-08-24T06:54:42;102212.13;;;22.34;92.11
55550;BME280;41397;49.972;18.944;2022-08-24T06:59:56;102204.10;;;22.39;91.82
55550;BME280;41397;49.972;18.944;2022-08-24T07:05:14;102203.78;;;22.43;91.30
55550;BME280;41397;49.972;18.944;2022-08-24T07:10:31;102211.81;;;22.46;91.56
55550;BME280;41397;49.972;18.944;2022-08-24T07:15:50;102222.43;;;22.50;91.29
55550;BME280;41397;49.972;18.944;2022-08-24T07:21:05;102213.91;;;22.52;91.28
55550;BME280;41397;49.972;18.944;2022-08-24T07:24:36;102213.21;;;22.58;91.49
55550;BME280;41397;49.972;18.944;2022-08-24T07:26:23;102214.08;;;22.58;91.10
55550;BME280;41397;49.972;18.944;2022-08-24T07:31:40;102210.82;;;22.79;91.28
55550;BME280;41397;49.972;18.944;2022-08-24T07:36:56;102212.61;;;23.05;90.89
55550;BME280;41397;49.972;18.944;2022-08-24T07:42:13;102229.20;;;23.31;90.32
55550;BME280;41397;49.972;18.944;2022-08-24T07:47:27;102243.67;;;23.43;88.00
55550;BME280;41397;49.972;18.944;2022-08-24T07:52:41;102240.02;;;23.42;86.86
55550;BME280;41397;49.972;18.944;2022-08-24T07:54:50;102243.86;;;23.41;87.28
55550;BME280;41397;49.972;18.944;2022-08-24T07:57:54;102244.21;;;23.38;87.09
55550;BME280;41397;49.972;18.944;2022-08-24T08:03:08;102241.23;;;23.40;87.63
55550;BME280;41397;49.972;18.944;2022-08-24T08:08:24;102248.38;;;23.51;86.86
55550;BME280;41397;49.972;18.944;2022-08-24T08:13:38;102257.99;;;23.40;85.92
55550;BME280;41397;49.972;18.944;2022-08-24T08:18:51;102248.74;;;23.39;86.93
55550;BME280;41397;49.972;18.944;2022-08-24T08:24:06;102245.08;;;23.39;86.88
55550;BME280;41397;49.972;18.944;2022-08-24T08:25:04;102242.45;;;23.37;87.06
55550;BME280;41397;49.972;18.944;2022-08-24T08:29:33;102244.21;;;23.38;86.43
55550;BME280;41397;49.972;18.944;2022-08-24T08:34:47;102253.62;;;23.45;86.76
55550;BME280;41397;49.972;18.944;2022-08-24T08:40:02;102259.20;;;23.45;86.88
55550;BME280;41397;49.972;18.944;2022-08-24T09:12:36;102276.66;;;23.15;86.50
55550;BME280;41397;49.972;18.944;2022-08-24T09:23:35;102278.41;;;23.32;86.88
55550;BME280;41397;49.972;18.944;2022-08-24T09:34:22;102267.91;;;23.67;85.33
55550;BME280;41397;49.972;18.944;2022-08-24T09:39:48;102263.03;;;23.85;84.91
55550;BME280;41397;49.972;18.944;2022-08-24T10:01:33;102254.20;;;24.61;79.17
55550;BME280;41397;49.972;18.944;2022-08-24T10:18:03;102242.29;;;25.21;78.68
55550;BME280;41397;49.972;18.944;2022-08-24T10:27:02;102242.93;;;25.46;77.09
55550;BME280;41397;49.972;18.944;2022-08-24T10:28:43;102244.88;;;25.45;77.00
55550;BME280;41397;49.972;18.944;2022-08-24T10:50:28;102239.94;;;25.47;75.70
55550;BME280;41397;49.972;18.944;2022-08-24T10:55:43;102246.23;;;25.50;76.43
55550;BME280;41397;49.972;18.944;2022-08-24T11:02:36;102243.17;;;25.59;75.76
55550;BME280;41397;49.972;18.944;2022-08-24T11:08:00;102247.79;;;25.67;76.42
55550;BME280;41397;49.972;18.944;2022-08-24T11:13:23;102255.25;;;25.75;75.59
55550;BME280;41397;49.972;18.944;2022-08-24T11:18:53;102252.95;;;25.78;75.99
55550;BME280;41397;49.972;18.944;2022-08-24T11:24:06;102244.96;;;26.05;76.84
55550;BME280;41397;49.972;18.944;2022-08-24T11:27:36;102243.02;;;26.05;75.98
55550;BME280;41397;49.972;18.944;2022-08-24T11:29:26;102245.08;;;26.11;74.85
55550;BME280;41397;49.972;18.944;2022-08-24T11:34:45;102242.93;;;26.28;75.31
55550;BME280;41397;49.972;18.944;2022-08-24T11:39:59;102241.85;;;26.29;74.85
55550;BME280;41397;49.972;18.944;2022-08-24T11:50:51;102242.90;;;26.43;73.98
55550;BME280;41397;49.972;18.944;2022-08-24T11:56:19;102230.23;;;26.47;74.94
55550;BME280;41397;49.972;18.944;2022-08-24T12:12:37;102233.43;;;27.17;73.42
55550;BME280;41397;49.972;18.944;2022-08-24T12:18:02;102234.55;;;27.22;70.02
55550;BME280;41397;49.972;18.944;2022-08-24T12:28:27;102227.27;;;27.28;72.39
55550;BME280;41397;49.972;18.944;2022-08-24T12:28:49;102230.48;;;27.25;72.50
55550;BME280;41397;49.972;18.944;2022-08-24T12:34:13;102238.91;;;27.25;71.68
55550;BME280;41397;49.972;18.944;2022-08-24T12:44:58;102228.70;;;27.17;71.99
55550;BME280;41397;49.972;18.944;2022-08-24T12:55:48;102222.70;;;27.49;71.20
55550;BME280;41397;49.972;18.944;2022-08-24T12:58:56;102216.63;;;27.45;70.53
55550;BME280;41397;49.972;18.944;2022-08-24T13:01:04;102213.18;;;27.50;71.11
55550;BME280;41397;49.972;18.944;2022-08-24T13:06:25;102216.25;;;27.55;70.67
55550;BME280;41397;49.972;18.944;2022-08-24T13:11:40;102220.60;;;27.57;71.17
55550;BME280;41397;49.972;18.944;2022-08-24T13:17:07;102223.21;;;27.59;71.98
55550;BME280;41397;49.972;18.944;2022-08-24T13:29:14;102224.21;;;27.79;70.00
55550;BME280;41397;49.972;18.944;2022-08-24T13:33:15;102220.41;;;27.87;70.17
55550;BME280;41397;49.972;18.944;2022-08-24T13:38:43;102209.45;;;27.99;69.43
55550;BME280;41397;49.972;18.944;2022-08-24T13:59:43;102185.97;;;28.20;69.13
55550;BME280;41397;49.972;18.944;2022-08-24T14:05:52;102164.13;;;28.22;69.34
55550;BME280;41397;49.972;18.944;2022-08-24T14:11:16;102152.21;;;28.20;69.35
55550;BME280;41397;49.972;18.944;2022-08-24T14:27:50;102140.52;;;28.16;70.64
55550;BME280;41397;49.972;18.944;2022-08-24T14:33:16;102147.63;;;28.12;70.95
55550;BME280;41397;49.972;18.944;2022-08-24T14:49:35;102126.52;;;27.88;71.08
55550;BME280;41397;49.972;18.944;2022-08-24T15:05:43;102141.48;;;27.60;71.67
55550;BME280;41397;49.972;18.944;2022-08-24T15:11:11;102150.32;;;27.57;72.18
55550;BME280;41397;49.972;18.944;2022-08-24T15:22:01;102165.88;;;27.53;72.88
55550;BME280;41397;49.972;18.944;2022-08-24T15:31:10;102155.70;;;27.52;72.53
55550;BME280;41397;49.972;18.944;2022-08-24T15:32:45;102140.59;;;27.53;72.66
55550;BME280;41397;49.972;18.944;2022-08-24T15:43:28;102148.28;;;27.44;73.24
55550;BME280;41397;49.972;18.944;2022-08-24T15:48:43;102143.71;;;27.37;73.65
55550;BME280;41397;49.972;18.944;2022-08-24T15:54:16;102140.42;;;27.33;73.88
55550;BME280;41397;49.972;18.944;2022-08-24T16:01:24;102154.95;;;27.37;74.84
55550;BME280;41397;49.972;18.944;2022-08-24T16:05:03;102155.97;;;27.29;74.71
55550;BME280;41397;49.972;18.944;2022-08-24T16:15:52;102158.92;;;27.21;75.67
55550;BME280;41397;49.972;18.944;2022-08-24T16:21:20;102158.25;;;27.19;75.68
55550;BME280;41397;49.972;18.944;2022-08-24T16:31:50;102153.56;;;27.05;76.09
55550;BME280;41397;49.972;18.944;2022-08-24T16:32:19;102149.23;;;27.02;76.33
55550;BME280;41397;49.972;18.944;2022-08-24T16:37:33;102147.87;;;26.98;76.40
55550;BME280;41397;49.972;18.944;2022-08-24T16:42:48;102139.36;;;26.85;77.03
55550;BME280;41397;49.972;18.944;2022-08-24T16:48:03;102143.20;;;26.84;77.14
55550;BME280;41397;49.972;18.944;2022-08-24T16:53:17;102148.97;;;26.75;77.84
55550;BME280;41397;49.972;18.944;2022-08-24T16:58:32;102160.13;;;26.69;78.26
55550;BME280;41397;49.972;18.944;2022-08-24T17:02:06;102150.85;;;26.68;78.50
55550;BME280;41397;49.972;18.944;2022-08-24T17:03:46;102147.28;;;26.60;78.77
55550;BME280;41397;49.972;18.944;2022-08-24T17:09:00;102142.76;;;26.59;79.01
55550;BME280;41397;49.972;18.944;2022-08-24T17:14:14;102145.64;;;26.50;79.27
55550;BME280;41397;49.972;18.944;2022-08-24T17:19:29;102147.72;;;26.42;79.48
55550;BME280;41397;49.972;18.944;2022-08-24T17:24:43;102161.86;;;26.33;79.66
55550;BME280;41397;49.972;18.944;2022-08-24T17:29:58;102156.65;;;26.30;79.64
55550;BME280;41397;49.972;18.944;2022-08-24T17:32:21;102161.76;;;26.27;79.87
55550;BME280;41397;49.972;18.944;2022-08-24T17:35:13;102157.81;;;26.21;79.77
55550;BME280;41397;49.972;18.944;2022-08-24T17:40:27;102159.57;;;26.22;80.96
55550;BME280;41397;49.972;18.944;2022-08-24T17:45:44;102164.89;;;26.02;86.17
55550;BME280;41397;49.972;18.944;2022-08-24T17:51:01;102151.18;;;25.63;87.56
55550;BME280;41397;49.972;18.944;2022-08-24T17:56:19;102167.78;;;25.50;87.40
55550;BME280;41397;49.972;18.944;2022-08-24T18:01:35;102202.80;;;25.31;88.74
55550;BME280;41397;49.972;18.944;2022-08-24T18:02:35;102199.31;;;25.29;88.79
55550;BME280;41397;49.972;18.944;2022-08-24T18:06:51;102197.83;;;25.18;89.26
55550;BME280;41397;49.972;18.944;2022-08-24T18:12:06;102192.44;;;25.16;88.97
55550;BME280;41397;49.972;18.944;2022-08-24T18:17:26;102232.49;;;24.94;91.02
55550;BME280;41397;49.972;18.944;2022-08-24T18:22:41;102218.62;;;24.46;89.46
55550;BME280;41397;49.972;18.944;2022-08-24T18:28:00;102213.11;;;24.22;86.58
55550;BME280;41397;49.972;18.944;2022-08-24T18:32:49;102204.26;;;24.10;84.49
55550;BME280;41397;49.972;18.944;2022-08-24T18:33:14;102211.95;;;24.08;83.93
55550;BME280;41397;49.972;18.944;2022-08-24T18:38:29;102212.80;;;24.08;82.97
55550;BME280;41397;49.972;18.944;2022-08-24T18:43:43;102205.46;;;24.15;84.69
55550;BME280;41397;49.972;18.944;2022-08-24T18:48:58;102201.43;;;24.18;85.13
55550;BME280;41397;49.972;18.944;2022-08-24T18:54:15;102201.93;;;24.22;85.10
55550;BME280;41397;49.972;18.944;2022-08-24T18:59:29;102203.00;;;24.21;86.07
55550;BME280;41397;49.972;18.944;2022-08-24T19:03:04;102202.30;;;24.19;86.19
55550;BME280;41397;49.972;18.944;2022-08-24T19:04:45;102206.16;;;24.18;86.28
55550;BME280;41397;49.972;18.944;2022-08-24T19:09:59;102206.85;;;24.11;86.73
55550;BME280;41397;49.972;18.944;2022-08-24T19:15:15;102216.31;;;24.10;87.30
55550;BME280;41397;49.972;18.944;2022-08-24T19:20:28;102226.31;;;23.97;86.50
55550;BME280;41397;49.972;18.944;2022-08-24T19:25:43;102218.13;;;23.87;87.16
55550;BME280;41397;49.972;18.944;2022-08-24T19:31:00;102220.92;;;23.87;87.57
55550;BME280;41397;49.972;18.944;2022-08-24T19:33:27;102221.98;;;23.86;87.49
55550;BME280;41397;49.972;18.944;2022-08-24T19:36:15;102211.68;;;23.86;88.33
55550;BME280;41397;49.972;18.944;2022-08-24T19:41:29;102223.91;;;23.85;87.92
55550;BME280;41397;49.972;18.944;2022-08-24T19:46:44;102214.48;;;23.70;88.27
55550;BME280;41397;49.972;18.944;2022-08-24T19:52:00;102214.33;;;23.63;88.38
55550;BME280;41397;49.972;18.944;2022-08-24T20:02:41;102219.41;;;23.35;86.76
55550;BME280;41397;49.972;18.944;2022-08-24T20:03:41;102220.30;;;23.36;86.86
55550;BME280;41397;49.972;18.944;2022-08-24T20:07:55;102228.49;;;23.37;87.00
55550;BME280;41397;49.972;18.944;2022-08-24T20:13:10;102242.65;;;23.28;87.54
55550;BME280;41397;49.972;18.944;2022-08-24T20:18:30;102243.88;;;23.25;87.52
55550;BME280;41397;49.972;18.944;2022-08-24T20:23:45;102243.88;;;23.17;87.25
55550;BME280;41397;49.972;18.944;2022-08-24T20:29:00;102244.21;;;23.06;87.53
55550;BME280;41397;49.972;18.944;2022-08-24T20:33:55;102244.38;;;23.04;88.09
55550;BME280;41397;49.972;18.944;2022-08-24T20:34:16;102244.53;;;23.02;88.10
55550;BME280;41397;49.972;18.944;2022-08-24T20:39:33;102258.11;;;22.89;88.36
55550;BME280;41397;49.972;18.944;2022-08-24T20:44:50;102266.63;;;22.79;89.02
55550;BME280;41397;49.972;18.944;2022-08-24T20:50:08;102257.39;;;22.79;89.19
55550;BME280;41397;49.972;18.944;2022-08-24T20:55:24;102268.71;;;22.77;89.24
55550;BME280;41397;49.972;18.944;2022-08-24T21:00:41;102270.47;;;22.78;89.71
55550;BME280;41397;49.972;18.944;2022-08-24T21:04:10;102268.34;;;22.72;89.93
55550;BME280;41397;49.972;18.944;2022-08-24T21:05:59;102269.23;;;22.73;89.89
55550;BME280;41397;49.972;18.944;2022-08-24T21:11:16;102273.18;;;22.54;90.30
55550;BME280;41397;49.972;18.944;2022-08-24T21:16:34;102269.34;;;22.55;90.57
55550;BME280;41397;49.972;18.944;2022-08-24T21:21:51;102279.26;;;22.49;90.89
55550;BME280;41397;49.972;18.944;2022-08-24T21:27:08;102286.31;;;22.27;91.55
55550;BME280;41397;49.972;18.944;2022-08-24T21:32:24;102277.91;;;22.19;92.04
55550;BME280;41397;49.972;18.944;2022-08-24T21:34:23;102268.49;;;22.20;92.19
55550;BME280;41397;49.972;18.944;2022-08-24T21:37:49;102265.63;;;22.12;92.22
55550;BME280;41397;49.972;18.944;2022-08-24T21:43:04;102269.23;;;22.04;92.29
55550;BME280;41397;49.972;18.944;2022-08-24T21:48:19;102264.19;;;22.00;92.77
55550;BME280;41397;49.972;18.944;2022-08-24T21:53:33;102259.59;;;21.90;93.30
55550;BME280;41397;49.972;18.944;2022-08-24T21:58:46;102251.90;;;21.84;94.06
55550;BME280;41397;49.972;18.944;2022-08-24T22:04:00;102248.73;;;21.79;94.15
55550;BME280;41397;49.972;18.944;2022-08-24T22:04:49;102248.59;;;21.81;93.96
55550;BME280;41397;49.972;18.944;2022-08-24T22:09:14;102252.23;;;21.81;93.79
55550;BME280;41397;49.972;18.944;2022-08-24T22:14:29;102250.50;;;21.80;93.73
55550;BME280;41397;49.972;18.944;2022-08-24T22:19:42;102253.91;;;21.74;94.02
55550;BME280;41397;49.972;18.944;2022-08-24T22:24:56;102246.02;;;21.61;94.22
55550;BME280;41397;49.972;18.944;2022-08-24T22:30:12;102246.50;;;21.57;94.34
55550;BME280;41397;49.972;18.944;2022-08-24T22:35:04;102242.79;;;21.48;94.53
55550;BME280;41397;49.972;18.944;2022-08-24T22:35:26;102250.42;;;21.46;94.64
55550;BME280;41397;49.972;18.944;2022-08-24T22:40:40;102250.50;;;21.36;95.13
55550;BME280;41397;49.972;18.944;2022-08-24T22:45:56;102245.58;;;21.48;94.57
55550;BME280;41397;49.972;18.944;2022-08-24T22:51:13;102249.62;;;21.54;94.04
55550;BME280;41397;49.972;18.944;2022-08-24T22:56:36;102252.07;;;21.57;93.70
55550;BME280;41397;49.972;18.944;2022-08-24T23:01:52;102242.84;;;21.56;93.54
55550;BME280;41397;49.972;18.944;2022-08-24T23:05:18;102232.37;;;21.50;93.56
55550;BME280;41397;49.972;18.944;2022-08-24T23:07:07;102235.30;;;21.48;93.82
55550;BME280;41397;49.972;18.944;2022-08-24T23:12:23;102241.67;;;21.41;94.39
55550;BME280;41397;49.972;18.944;2022-08-24T23:17:38;102231.41;;;21.41;94.33
55550;BME280;41397;49.972;18.944;2022-08-24T23:22:55;102225.16;;;21.39;94.33
55550;BME280;41397;49.972;18.944;2022-08-24T23:28:12;102223.78;;;21.43;94.40
55550;BME280;41397;49.972;18.944;2022-08-24T23:33:26;102227.99;;;21.47;94.13
55550;BME280;41397;49.972;18.944;2022-08-24T23:35:32;102218.92;;;21.45;94.05
55550;BME280;41397;49.972;18.944;2022-08-24T23:38:41;102228.69;;;21.49;93.86
55550;BME280;41397;49.972;18.944;2022-08-24T23:43:58;102224.88;;;21.50;93.79
55550;BME280;41397;49.972;18.944;2022-08-24T23:49:14;102225.60;;;21.53;93.60
55550;BME280;41397;49.972;18.944;2022-08-24T23:54:28;102225.74;;;21.51;93.47
55550;BME280;41397;49.972;18.944;2022-08-24T23:59:42;102234.25;;;21.49;93.29
